createdAt,value
2018-07-25T00:02:05.906Z,9.60
2018-07-25T00:04:33.164Z,8.83
2018-07-25T00:07:00.389Z,7.50
2018-07-25T00:09:27.608Z,9.40
2018-07-25T00:11:54.824Z,10.30
2018-07-25T00:14:22.044Z,10.68
2018-07-25T00:16:49.264Z,12.78
2018-07-25T00:19:16.529Z,8.93
2018-07-25T00:21:43.727Z,9.45
2018-07-25T00:24:10.980Z,8.78
2018-07-25T00:26:38.241Z,8.65
2018-07-25T00:29:05.477Z,10.70
2018-07-25T00:31:32.789Z,7.40
2018-07-25T00:34:00.049Z,6.75
2018-07-25T00:36:27.276Z,6.80
2018-07-25T00:38:54.560Z,10.93
2018-07-25T00:41:22.012Z,8.40
2018-07-25T00:43:49.204Z,10.05
2018-07-25T00:46:16.458Z,11.28
2018-07-25T00:48:43.661Z,10.60
2018-07-25T00:51:10.861Z,7.67
2018-07-25T00:53:38.208Z,12.80
2018-07-25T00:56:05.407Z,8.58
2018-07-25T00:58:32.755Z,6.00
2018-07-25T01:01:00.065Z,5.75
2018-07-25T01:03:27.291Z,7.80
2018-07-25T01:05:54.521Z,6.33
2018-07-25T01:08:21.733Z,6.70
2018-07-25T01:10:48.917Z,12.33
2018-07-25T01:13:16.180Z,8.50
2018-07-25T01:15:43.384Z,6.47
2018-07-25T01:18:10.599Z,4.08
2018-07-25T01:20:37.804Z,7.75
2018-07-25T01:23:05.056Z,6.75
2018-07-25T01:25:32.262Z,4.30
2018-07-25T01:27:59.436Z,5.72
2018-07-25T01:30:26.699Z,8.10
2018-07-25T01:32:53.935Z,7.45
2018-07-25T01:35:21.115Z,5.03
2018-07-25T01:37:48.315Z,4.55
2018-07-25T01:40:15.534Z,5.70
2018-07-25T01:42:42.728Z,5.70
2018-07-25T01:45:09.989Z,6.15
2018-07-25T01:47:37.594Z,8.58
2018-07-25T01:50:04.902Z,8.55
2018-07-25T01:52:32.080Z,5.10
2018-07-25T01:54:59.333Z,6.65
2018-07-25T01:57:26.597Z,4.97
2018-07-25T01:59:53.803Z,4.47
2018-07-25T02:02:21.068Z,3.58
2018-07-25T02:04:48.288Z,8.65
2018-07-25T02:07:15.492Z,8.40
2018-07-25T02:09:42.931Z,5.95
2018-07-25T02:12:10.124Z,5.33
2018-07-25T02:14:37.356Z,5.30
2018-07-25T02:17:04.625Z,6.25
2018-07-25T02:19:31.973Z,8.80
2018-07-25T02:21:59.106Z,6.83
2018-07-25T02:24:26.348Z,9.73
2018-07-25T02:26:53.524Z,7.60
2018-07-25T02:29:20.728Z,6.70
2018-07-25T02:31:47.921Z,6.42
2018-07-25T02:34:19.508Z,5.50
2018-07-25T02:36:46.832Z,12.78
2018-07-25T02:39:14.037Z,8.05
2018-07-25T02:41:42.088Z,6.40
2018-07-25T02:44:09.306Z,4.70
2018-07-25T02:46:36.616Z,5.40
2018-07-25T02:49:03.960Z,4.90
2018-07-25T02:51:32.065Z,5.60
2018-07-25T02:53:59.372Z,5.60
2018-07-25T02:56:26.648Z,5.33
2018-07-25T02:58:53.874Z,5.22
2018-07-25T03:01:21.109Z,5.83
2018-07-25T03:03:48.346Z,7.67
2018-07-25T03:06:15.922Z,9.65
2018-07-25T03:08:43.114Z,4.92
2018-07-25T03:11:10.436Z,3.95
2018-07-25T03:13:37.675Z,9.43
2018-07-25T03:16:06.929Z,7.80
2018-07-25T03:18:34.266Z,4.10
2018-07-25T03:21:01.584Z,8.20
2018-07-25T03:23:29.845Z,7.30
2018-07-25T03:25:57.044Z,5.17
2018-07-25T03:28:24.652Z,8.93
2018-07-25T03:30:52.333Z,5.27
2018-07-25T03:33:19.744Z,9.23
2018-07-25T03:35:46.933Z,12.67
2018-07-25T03:38:14.138Z,7.47
2018-07-25T03:40:41.383Z,4.50
2018-07-25T03:43:08.688Z,13.63
2018-07-25T03:45:35.893Z,12.30
2018-07-25T03:48:03.150Z,7.73
2018-07-25T03:50:30.317Z,5.33
2018-07-25T03:52:57.612Z,5.83
2018-07-25T03:55:24.792Z,6.00
2018-07-25T03:57:52.076Z,11.10
2018-07-25T04:00:19.298Z,7.23
2018-07-25T04:02:46.514Z,11.57
2018-07-25T04:05:13.711Z,9.10
2018-07-25T04:07:40.971Z,11.80
2018-07-25T04:10:08.182Z,14.27
2018-07-25T04:12:35.428Z,18.63
2018-07-25T04:15:02.748Z,9.07
2018-07-25T04:17:35.938Z,8.23
2018-07-25T04:20:03.224Z,17.27
2018-07-25T04:22:31.233Z,12.77
2018-07-25T04:24:58.664Z,14.47
2018-07-25T04:27:25.873Z,13.00
2018-07-25T04:29:53.048Z,11.93
2018-07-25T04:32:20.264Z,16.13
2018-07-25T04:34:47.463Z,13.47
2018-07-25T04:37:14.672Z,15.13
2018-07-25T04:39:41.896Z,18.33
2018-07-25T04:42:09.179Z,11.60
2018-07-25T04:44:36.423Z,18.50
2018-07-25T04:47:03.788Z,22.90
2018-07-25T04:49:31.031Z,13.00
2018-07-25T04:51:58.231Z,12.00
2018-07-25T04:54:25.440Z,8.93
2018-07-25T04:56:52.632Z,12.77
2018-07-25T04:59:19.831Z,18.67
2018-07-25T05:01:47.136Z,11.73
2018-07-25T05:04:14.437Z,14.83
2018-07-25T05:06:41.699Z,13.13
2018-07-25T05:09:09.862Z,10.13
2018-07-25T05:11:37.062Z,11.40
2018-07-25T05:14:04.483Z,12.43
2018-07-25T05:16:31.712Z,10.83
2018-07-25T05:18:58.912Z,11.70
2018-07-25T05:21:26.112Z,9.90
2018-07-25T05:23:53.448Z,11.40
2018-07-25T05:26:20.639Z,10.03
2018-07-25T05:28:47.817Z,11.00
2018-07-25T05:31:15.026Z,21.87
2018-07-25T05:33:42.352Z,16.10
2018-07-25T05:36:09.591Z,12.40
2018-07-25T05:38:36.808Z,7.73
2018-07-25T05:41:04.132Z,9.03
2018-07-25T05:43:31.317Z,13.83
2018-07-25T05:45:58.593Z,9.53
2018-07-25T05:48:25.843Z,13.37
2018-07-25T05:50:53.031Z,14.00
2018-07-25T05:53:20.283Z,22.00
2018-07-25T05:55:47.536Z,9.97
2018-07-25T05:58:15.556Z,20.33
2018-07-25T06:00:42.794Z,12.97
2018-07-25T06:03:10.174Z,16.27
2018-07-25T06:05:37.312Z,14.60
2018-07-25T06:08:04.715Z,21.93
2018-07-25T06:10:31.914Z,23.13
2018-07-25T06:12:59.204Z,15.70
2018-07-25T06:15:27.136Z,17.00
2018-07-25T06:17:54.370Z,22.90
2018-07-25T06:20:21.564Z,26.03
2018-07-25T06:22:48.908Z,20.73
2018-07-25T06:25:16.137Z,13.13
2018-07-25T06:27:43.869Z,24.13
2018-07-25T06:30:11.056Z,16.37
2018-07-25T06:32:38.307Z,17.77
2018-07-25T06:35:05.545Z,13.50
2018-07-25T06:37:32.857Z,20.13
2018-07-25T06:40:00.093Z,17.13
2018-07-25T06:42:27.281Z,15.03
2018-07-25T06:44:54.464Z,22.70
2018-07-25T06:47:21.772Z,31.40
2018-07-25T11:19:10.387Z,9.60
2018-07-25T11:21:37.621Z,6.65
2018-07-25T11:24:04.977Z,6.30
2018-07-25T11:31:25.738Z,3.42
2018-07-25T11:33:52.900Z,7.40
2018-07-25T11:36:20.166Z,5.33
2018-07-25T11:38:47.399Z,3.60
2018-07-25T11:43:41.453Z,5.80
2018-07-25T11:46:08.676Z,3.45
2018-07-25T11:48:36.028Z,2.92
2018-07-25T11:51:03.268Z,3.50
2018-07-25T11:53:30.473Z,6.17
2018-07-25T11:55:57.781Z,5.22
2018-07-25T11:58:25.312Z,4.53
2018-07-25T13:02:02.467Z,2.60
2018-07-25T13:11:49.985Z,2.87
2018-07-25T13:14:17.224Z,5.45
2018-07-25T13:16:44.461Z,3.47
2018-07-25T13:19:11.746Z,3.12
2018-07-25T13:21:38.980Z,2.90
2018-07-25T13:24:06.208Z,2.25
2018-07-25T13:26:33.479Z,3.00
2018-07-25T13:29:00.900Z,3.02
2018-07-25T13:31:28.129Z,3.47
2018-07-25T13:33:55.426Z,5.10
2018-07-25T13:36:22.684Z,2.40
2018-07-25T13:38:49.923Z,2.70
2018-07-25T13:41:17.154Z,4.70
2018-07-25T13:43:44.388Z,3.95
2018-07-25T14:08:20.376Z,3.93
2018-07-25T14:10:47.615Z,6.92
2018-07-25T14:13:14.868Z,5.33
2018-07-25T14:15:42.159Z,5.03
2018-07-25T14:18:09.409Z,5.90
2018-07-25T14:20:36.560Z,11.15
2018-07-25T14:23:04.088Z,4.95
2018-07-25T14:25:31.340Z,6.05
2018-07-25T14:27:58.823Z,12.10
2018-07-25T14:30:26.229Z,9.90
2018-07-25T14:32:53.343Z,32.40
2018-07-25T14:35:20.693Z,40.93
2018-07-25T14:37:47.913Z,34.27
2018-07-25T14:40:15.294Z,31.60
2018-07-25T14:42:42.410Z,42.53
2018-07-25T14:45:09.663Z,30.83
2018-07-25T14:47:36.888Z,14.77
2018-07-25T14:50:06.050Z,19.20
2018-07-25T14:52:33.304Z,17.43
2018-07-25T14:55:00.887Z,17.17
2018-07-25T14:57:28.183Z,7.58
2018-07-25T14:59:55.415Z,11.47
2018-07-25T15:02:22.774Z,14.70
2018-07-25T15:04:49.968Z,19.12
2018-07-25T15:07:17.198Z,14.73
2018-07-25T15:12:11.218Z,16.32
2018-07-25T15:14:38.490Z,11.83
2018-07-25T15:17:05.895Z,12.23
2018-07-25T15:19:33.102Z,10.73
2018-07-25T15:22:00.376Z,8.48
2018-07-25T15:24:27.678Z,10.43
2018-07-25T15:26:54.962Z,9.10
2018-07-25T15:29:22.241Z,10.80
2018-07-25T15:31:49.762Z,15.28
2018-07-25T15:34:16.990Z,8.95
2018-07-25T15:36:47.980Z,14.87
2018-07-25T15:39:32.113Z,8.53
2018-07-25T15:41:59.317Z,23.05
2018-07-25T15:44:27.183Z,39.47
2018-07-25T15:46:54.765Z,11.28
2018-07-25T15:49:21.976Z,8.90
2018-07-25T15:51:49.208Z,8.38
2018-07-25T15:54:16.760Z,10.60
2018-07-25T15:56:44.009Z,7.35
2018-07-25T15:59:11.436Z,8.98
2018-07-25T16:01:38.720Z,13.23
2018-07-25T16:04:06.148Z,18.62
2018-07-25T16:06:33.498Z,9.10
2018-07-25T16:09:00.734Z,6.92
2018-07-25T16:11:28.013Z,8.40
2018-07-25T16:13:55.291Z,7.50
2018-07-25T16:16:22.687Z,5.80
2018-07-25T16:18:50.331Z,6.42
2018-07-25T16:21:18.226Z,8.40
2018-07-25T16:23:45.564Z,8.20
2018-07-25T16:26:12.872Z,7.25
2018-07-25T16:28:40.079Z,10.72
2018-07-25T16:31:07.728Z,8.13
2018-07-25T16:33:34.982Z,6.55
2018-07-25T16:36:02.379Z,9.70
2018-07-25T16:38:29.585Z,13.83
2018-07-25T16:40:56.889Z,4.92
2018-07-25T16:43:24.200Z,6.62
2018-07-25T16:45:51.421Z,5.47
2018-07-25T16:48:18.696Z,8.38
2018-07-25T16:50:45.954Z,10.13
2018-07-25T16:53:13.273Z,6.55
2018-07-25T16:55:40.620Z,5.97
2018-07-25T16:58:08.430Z,5.95
2018-07-25T17:00:35.774Z,6.25
2018-07-25T17:03:03.127Z,8.83
2018-07-25T17:05:30.381Z,7.17
2018-07-25T17:07:57.593Z,4.40
2018-07-25T17:10:24.816Z,6.30
2018-07-25T17:12:52.342Z,5.20
2018-07-25T17:15:19.521Z,6.35
2018-07-25T17:17:46.834Z,9.90
2018-07-25T17:20:14.082Z,5.55
2018-07-25T17:22:41.295Z,7.73
2018-07-25T17:25:08.486Z,7.40
2018-07-25T17:27:35.859Z,7.87
2018-07-25T17:30:03.109Z,8.93
2018-07-25T17:32:30.498Z,7.83
2018-07-25T17:34:57.800Z,8.08
2018-07-25T17:37:25.016Z,4.42
2018-07-25T17:39:52.270Z,7.15
2018-07-25T17:42:19.488Z,6.80
2018-07-25T17:44:46.704Z,5.33
2018-07-25T17:47:13.920Z,8.25
2018-07-25T17:49:41.713Z,11.75
2018-07-25T17:52:10.368Z,9.55
2018-07-25T17:54:37.666Z,6.17
2018-07-25T17:57:04.943Z,6.95
2018-07-25T17:59:32.234Z,9.83
2018-07-25T18:01:59.420Z,8.50
2018-07-25T18:04:26.673Z,9.03
2018-07-25T18:06:53.980Z,8.00
2018-07-25T18:09:21.212Z,6.55
2018-07-25T18:11:48.474Z,5.73
2018-07-25T18:14:16.240Z,7.40
2018-07-25T18:16:44.409Z,9.55
2018-07-25T18:19:12.323Z,5.50
2018-07-25T18:21:40.077Z,6.00
2018-07-25T18:24:07.416Z,10.00
2018-07-25T18:26:34.646Z,7.25
2018-07-25T18:29:01.949Z,6.23
2018-07-25T18:31:29.158Z,8.15
2018-07-25T18:33:56.464Z,17.48
2018-07-25T18:36:23.713Z,13.48
2018-07-25T18:38:51.260Z,12.27
2018-07-25T18:41:18.592Z,6.03
2018-07-25T18:43:45.865Z,5.60
2018-07-25T18:46:13.130Z,6.95
2018-07-25T18:48:40.615Z,7.58
2018-07-25T18:51:07.815Z,7.03
2018-07-25T18:53:35.872Z,8.55
2018-07-25T18:56:03.146Z,7.90
2018-07-25T18:58:30.364Z,5.70
2018-07-25T19:01:02.423Z,7.55
2018-07-25T19:03:29.737Z,5.70
2018-07-25T19:05:56.976Z,6.75
2018-07-25T19:08:24.366Z,5.70
2018-07-25T19:10:51.635Z,7.25
2018-07-25T19:13:24.556Z,9.20
2018-07-25T19:15:51.818Z,26.17
2018-07-25T19:18:19.088Z,16.20
2018-07-25T19:20:46.592Z,8.30
2018-07-25T19:23:13.803Z,6.90
2018-07-25T19:25:41.068Z,14.33
2018-07-25T19:28:08.316Z,9.97
2018-07-25T19:30:35.528Z,10.60
2018-07-25T19:33:02.785Z,7.00
2018-07-25T19:35:30.035Z,8.40
2018-07-25T19:37:57.261Z,6.50
2018-07-25T19:40:24.697Z,7.43
2018-07-25T19:42:53.510Z,7.87
2018-07-25T19:45:21.344Z,6.57
2018-07-25T19:47:48.651Z,7.47
2018-07-25T19:50:16.417Z,13.00
2018-07-25T19:52:43.617Z,7.60
2018-07-25T19:55:10.845Z,14.10
2018-07-25T19:57:38.147Z,8.73
2018-07-25T20:00:05.781Z,8.47
2018-07-25T20:02:32.987Z,10.53
2018-07-25T20:05:00.855Z,8.50
2018-07-25T20:07:28.101Z,9.70
2018-07-25T20:09:55.381Z,9.20
2018-07-25T20:12:22.628Z,9.10
2018-07-25T20:14:55.658Z,13.20
2018-07-25T20:17:22.892Z,13.20
2018-07-25T20:19:50.258Z,14.18
2018-07-25T20:22:17.426Z,6.40
2018-07-25T20:24:44.649Z,12.37
2018-07-25T20:27:11.957Z,7.67
2018-07-25T20:29:39.283Z,12.00
2018-07-25T20:32:06.493Z,8.03
2018-07-25T20:34:33.697Z,7.47
2018-07-25T20:37:00.977Z,7.83
2018-07-25T20:39:28.228Z,9.40
2018-07-25T20:41:55.639Z,9.98
2018-07-25T20:44:22.881Z,7.97
2018-07-25T20:46:50.192Z,10.63
2018-07-25T20:49:17.463Z,8.00
2018-07-25T20:51:44.788Z,6.65
2018-07-25T20:54:11.969Z,12.80
2018-07-25T20:56:39.137Z,10.63
2018-07-25T20:59:06.802Z,12.53
2018-07-25T21:01:34.033Z,11.03
2018-07-25T21:04:01.531Z,12.88
2018-07-25T21:06:29.911Z,13.00
2018-07-25T21:08:57.145Z,9.95
2018-07-25T21:11:24.359Z,11.78
2018-07-25T21:13:51.597Z,15.78
2018-07-25T21:16:18.869Z,12.10
2018-07-25T21:18:46.101Z,15.83
2018-07-25T21:21:13.434Z,9.47
2018-07-25T21:23:40.684Z,12.43
2018-07-25T21:26:08.048Z,10.10
2018-07-25T21:28:35.259Z,18.53
2018-07-25T21:31:02.547Z,12.35
2018-07-25T21:33:29.870Z,11.77
2018-07-25T21:35:57.196Z,12.37
2018-07-25T21:38:24.521Z,10.40
2018-07-25T21:40:51.713Z,11.65
2018-07-25T21:43:19.004Z,8.83
2018-07-25T21:45:46.228Z,12.23
2018-07-25T21:48:15.428Z,15.65
2018-07-25T21:50:43.261Z,14.40
2018-07-25T21:53:10.581Z,10.50
2018-07-25T21:55:38.500Z,8.68
2018-07-25T21:58:05.726Z,14.60
2018-07-25T22:00:33.411Z,10.72
2018-07-25T22:03:00.701Z,14.63
2018-07-25T22:05:27.985Z,9.50
2018-07-25T22:07:55.221Z,10.00
2018-07-25T22:10:25.077Z,17.37
2018-07-25T22:12:52.543Z,13.18
2018-07-25T22:15:20.028Z,10.60
2018-07-25T22:17:47.258Z,13.43
2018-07-25T22:20:14.687Z,17.95
2018-07-25T22:22:41.884Z,14.30
2018-07-25T22:25:09.756Z,13.58
2018-07-25T22:27:37.986Z,13.80
2018-07-25T22:30:05.341Z,13.70
2018-07-25T22:32:32.590Z,8.83
2018-07-25T22:35:00.876Z,11.25
2018-07-25T22:37:28.055Z,12.00
2018-07-25T22:39:55.275Z,10.30
2018-07-25T22:42:22.496Z,13.90
2018-07-25T22:44:49.743Z,10.30
2018-07-25T22:47:17.246Z,11.90
2018-07-25T22:49:44.430Z,10.80
2018-07-25T22:52:11.595Z,7.37
2018-07-25T22:54:38.827Z,14.17
2018-07-25T22:57:06.038Z,9.37
2018-07-25T22:59:33.256Z,14.20
2018-07-25T23:02:00.756Z,11.38
2018-07-25T23:04:27.987Z,12.05
2018-07-25T23:06:55.159Z,12.30
2018-07-25T23:09:22.492Z,13.65
2018-07-25T23:11:49.857Z,14.18
2018-07-25T23:14:17.062Z,8.70
2018-07-25T23:16:44.362Z,10.80
2018-07-25T23:19:11.575Z,10.50
2018-07-25T23:21:38.776Z,14.55
2018-07-25T23:24:06.033Z,9.78
2018-07-25T23:26:33.272Z,14.00
2018-07-25T23:29:00.452Z,10.70
2018-07-25T23:31:28.266Z,9.83
2018-07-25T23:33:55.585Z,12.50
2018-07-25T23:36:22.822Z,10.70
2018-07-25T23:38:50.102Z,11.30
2018-07-25T23:41:17.326Z,13.78
2018-07-25T23:43:44.547Z,8.80
2018-07-25T23:46:11.784Z,9.30
2018-07-25T23:48:39.008Z,10.70
2018-07-25T23:51:06.336Z,9.08
2018-07-25T23:53:33.640Z,10.38
2018-07-25T23:56:00.886Z,9.85
2018-07-25T23:58:28.113Z,10.20
